Time;durP1;ratioP1;P1;durP2;ratioP2;P2;SDS_P1;SDS_P2;PMS_P1;PMS_P2;Temp;Humidity;BMP_temperature;BMP_pressure;BME280_temperature;BME280_humidity;BME280_pressure;Samples;Min_cycle;Max_cycle;Signal;HPM_P1;HPM_P2
2022/12/03 00:00:45;;;;;;;;;;;;;;;;;;4977297;28;19933;-55
2022/12/03 00:03:11;;;;;;;;;;;;;;;;;;4986721;28;20365;-55
2022/12/03 00:05:37;;;;;;;;;;;;;;;;;;4993916;28;19975;-56
2022/12/03 00:08:03;;;;;;;;;;;;;;;;;;4986603;28;19925;-56
2022/12/03 00:10:28;;;;;;;;;;;;;;;;;;4983982;28;20314;-55
2022/12/03 00:12:54;;;;;;;;;;;;;;;;;;4991115;28;19932;-55
2022/12/03 00:15:20;;;;;;;;;;;;;;;;;;4974797;28;19960;-55
2022/12/03 00:17:46;;;;;;;;;;;;;;;;;;4981366;28;20548;-56
2022/12/03 00:20:12;;;;;;;;;;;;;;;;;;4976137;28;20906;-55
2022/12/03 00:22:38;;;;;;;;;;;;;;;;;;5001060;28;19929;-55
2022/12/03 00:25:04;;;;;;;;;;;;;;;;;;5013577;28;20543;-55
2022/12/03 00:27:29;;;;;;;;;;;;;;;;;;4997342;28;19931;-54
2022/12/03 00:29:55;;;;;;;;;;;;;;;;;;4987281;28;19949;-55
2022/12/03 00:32:21;;;;;;;;;;;;;;;;;;4994807;28;20202;-54
2022/12/03 00:34:47;;;;;;;;;;;;;;;;;;5004051;28;19925;-55
2022/12/03 00:37:13;;;;;;;;;;;;;;;;;;4997899;28;20437;-54
2022/12/03 00:39:39;;;;;;;;;;;;;;;;;;5004025;28;19921;-55
2022/12/03 00:42:05;;;;;;;;;;;;;;;;;;5009066;28;19925;-55
2022/12/03 00:44:30;;;;;;;;;;;;;;;;;;5001576;28;20020;-54
2022/12/03 00:46:56;;;;;;;;;;;;;;;;;;4993816;28;19952;-54
2022/12/03 00:49:22;;;;;;;;;;;;;;;;;;5012036;28;19925;-55
2022/12/03 00:51:48;;;;;;;;;;;;;;;;;;5003586;28;19921;-55
2022/12/03 00:54:14;;;;;;;;;;;;;;;;;;4995350;28;21296;-56
2022/12/03 00:56:40;;;;;;;;;;;;;;;;;;5006414;28;20336;-55
2022/12/03 00:59:06;;;;;;;;;;;;;;;;;;5004437;28;19920;-56
2022/12/03 01:01:31;;;;;;;;;;;;;;;;;;4996624;28;24979;-55
2022/12/03 01:03:57;;;;;;;;;;;;;;;;;;5003854;28;20386;-55
2022/12/03 01:06:23;;;;;;;;;;;;;;;;;;5000170;28;19947;-55
2022/12/03 01:08:49;;;;;;;;;;;;;;;;;;4982452;28;20699;-56
2022/12/03 01:14:00;;;;;;;;;;;;;;;;;;4982225;28;20565;-55
2022/12/03 01:16:26;;;;;;;;;;;;;;;;;;4992649;28;19929;-55
2022/12/03 01:18:51;;;;;;;;;;;;;;;;;;5002015;28;19936;-56
2022/12/03 01:21:17;;;;;;;;;;;;;;;;;;4991960;28;20024;-54
2022/12/03 01:23:43;;;;;;;;;;;;;;;;;;4999259;28;19929;-55
2022/12/03 01:26:09;;;;;;;;;;;;;;;;;;4996473;28;19926;-54
2022/12/03 01:28:35;;;;;;;;;;;;;;;;;;5003715;28;19996;-55
2022/12/03 01:33:45;;;;;;;;;;;;;;;;;;4990994;28;20050;-55
2022/12/03 01:36:11;;;;;;;;;;;;;;;;;;4982045;28;19942;-56
2022/12/03 01:38:37;;;;;;;;;;;;;;;;;;4990124;28;19936;-55
2022/12/03 01:41:03;;;;;;;;;;;;;;;;;;4991973;28;19953;-55
2022/12/03 01:43:29;;;;;;;;;;;;;;;;;;4984924;28;20497;-56
2022/12/03 01:45:54;;;;;;;;;;;;;;;;;;4995310;28;20024;-55
2022/12/03 01:48:20;;;;;;;;;;;;;;;;;;4972662;28;19925;-55
2022/12/03 01:50:46;;;;;;;;;;;;;;;;;;4988805;28;20366;-55
2022/12/03 01:53:12;;;;;;;;;;;;;;;;;;4991564;28;20535;-55
2022/12/03 01:55:38;;;;;;;;;;;;;;;;;;4985894;28;19922;-55
2022/12/03 01:58:04;;;;;;;;;;;;;;;;;;5002794;28;19925;-55
2022/12/03 02:00:30;;;;;;;;;;;;;;;;;;4997055;28;19995;-55
2022/12/03 02:02:56;;;;;;;;;;;;;;;;;;4990334;28;20329;-55
2022/12/03 02:05:22;;;;;;;;;;;;;;;;;;4994989;28;20469;-55
2022/12/03 02:07:48;;;;;;;;;;;;;;;;;;4998086;28;20346;-56
2022/12/03 02:10:14;;;;;;;;;;;;;;;;;;4992399;28;19926;-56
2022/12/03 02:12:39;;;;;;;;;;;;;;;;;;4991801;28;19925;-55
2022/12/03 02:15:05;;;;;;;;;;;;;;;;;;5001303;28;19921;-56
2022/12/03 02:17:31;;;;;;;;;;;;;;;;;;4987948;28;19925;-54
2022/12/03 02:19:57;;;;;;;;;;;;;;;;;;4999605;28;20415;-56
2022/12/03 02:22:23;;;;;;;;;;;;;;;;;;4996199;28;19924;-54
2022/12/03 02:24:49;;;;;;;;;;;;;;;;;;5002654;28;20362;-56
2022/12/03 02:27:15;;;;;;;;;;;;;;;;;;4999452;28;19929;-56
2022/12/03 02:29:41;;;;;;;;;;;;;;;;;;4996951;28;20018;-55
2022/12/03 02:32:06;;;;;;;;;;;;;;;;;;4999974;28;19926;-55
2022/12/03 02:34:32;;;;;;;;;;;;;;;;;;5001654;28;20300;-55
2022/12/03 02:36:58;;;;;;;;;;;;;;;;;;4992771;28;19921;-55
2022/12/03 02:39:24;;;;;;;;;;;;;;;;;;4988888;28;19994;-55
2022/12/03 02:44:34;;;;;;;;;;;;;;;;;;4994443;28;19932;-56
2022/12/03 02:47:00;;;;;;;;;;;;;;;;;;4990924;28;19933;-55
2022/12/03 02:49:26;;;;;;;;;;;;;;;;;;4988905;28;20051;-55
2022/12/03 02:51:52;;;;;;;;;;;;;;;;;;4985541;28;19932;-55
2022/12/03 02:54:18;;;;;;;;;;;;;;;;;;4992883;28;19968;-55
2022/12/03 02:56:44;;;;;;;;;;;;;;;;;;4996350;28;19918;-54
2022/12/03 02:59:10;;;;;;;;;;;;;;;;;;4989984;28;19940;-55
2022/12/03 03:01:36;;;;;;;;;;;;;;;;;;4988834;28;20393;-55
2022/12/03 03:04:02;;;;;;;;;;;;;;;;;;4996359;28;19971;-54
2022/12/03 03:06:28;;;;;;;;;;;;;;;;;;4993080;28;20375;-55
2022/12/03 03:08:53;;;;;;;;;;;;;;;;;;4993091;28;20034;-55
2022/12/03 03:11:19;;;;;;;;;;;;;;;;;;5003182;28;19925;-55
2022/12/03 03:13:45;;;;;;;;;;;;;;;;;;4989355;28;20304;-55
2022/12/03 03:16:11;;;;;;;;;;;;;;;;;;4979162;28;19948;-57
2022/12/03 03:18:37;;;;;;;;;;;;;;;;;;4980230;28;20472;-55
2022/12/03 03:21:03;;;;;;;;;;;;;;;;;;4994424;28;19972;-55
2022/12/03 03:23:29;;;;;;;;;;;;;;;;;;4999247;28;20364;-56
2022/12/03 03:25:54;;;;;;;;;;;;;;;;;;4986803;28;19929;-56
2022/12/03 03:28:20;;;;;;;;;;;;;;;;;;5002335;28;19932;-56
2022/12/03 03:30:46;;;;;;;;;;;;;;;;;;5002130;28;20377;-56
2022/12/03 03:33:12;;;;;;;;;;;;;;;;;;4994490;28;19924;-55
2022/12/03 03:35:38;;;;;;;;;;;;;;;;;;5006050;28;20017;-55
2022/12/03 03:38:04;;;;;;;;;;;;;;;;;;4989981;28;20087;-56
2022/12/03 03:40:30;;;;;;;;;;;;;;;;;;4990274;28;20011;-57
2022/12/03 03:42:55;;;;;;;;;;;;;;;;;;4987214;28;20275;-54
2022/12/03 03:45:22;;;;;;;;;;;;;;;;;;4992307;28;19917;-55
2022/12/03 03:47:48;;;;;;;;;;;;;;;;;;4999453;28;20398;-55
2022/12/03 03:50:30;;;;;;;;;;;;;;;;;;4965943;28;20305;-55
2022/12/03 03:52:55;;;;;;;;;;;;;;;;;;4991573;28;19932;-55
2022/12/03 03:55:21;;;;;;;;;;;;;;;;;;4986136;28;19925;-56
2022/12/03 03:57:47;;;;;;;;;;;;;;;;;;4998775;28;19931;-55
2022/12/03 04:00:13;;;;;;;;;;;;;;;;;;4989155;28;19926;-55
2022/12/03 04:02:39;;;;;;;;;;;;;;;;;;4997197;28;19925;-56
2022/12/03 04:05:05;;;;;;;;;;;;;;;;;;5004276;28;19925;-55
2022/12/03 04:07:31;;;;;;;;;;;;;;;;;;5004099;28;20485;-55
2022/12/03 04:09:56;;;;;;;;;;;;;;;;;;4999034;28;19920;-55
2022/12/03 04:15:07;;;;;;;;;;;;;;;;;;4989065;28;19928;-56
2022/12/03 04:17:33;;;;;;;;;;;;;;;;;;4995599;28;20655;-55
2022/12/03 04:19:59;;;;;;;;;;;;;;;;;;4995137;28;20034;-54
2022/12/03 04:22:40;;;;;;;;;;;;;;;;;;4998991;28;19925;-55
2022/12/03 04:30:35;;;;;;;;;;;;;;;;;;4983869;28;20687;-55
2022/12/03 04:35:46;;;;;;;;;;;;;;;;;;4986508;28;20477;-55
2022/12/03 04:38:12;;;;;;;;;;;;;;;;;;4991338;28;19930;-56
2022/12/03 04:43:22;;;;;;;;;;;;;;;;;;4992422;28;19943;-55
2022/12/03 04:45:48;;;;;;;;;;;;;;;;;;4990554;28;19925;-55
2022/12/03 04:48:14;;;;;;;;;;;;;;;;;;4997989;28;19925;-55
2022/12/03 04:50:40;;;;;;;;;;;;;;;;;;4984471;28;20464;-55
2022/12/03 04:53:06;;;;;;;;;;;;;;;;;;4992421;28;20116;-56
2022/12/03 04:55:32;;;;;;;;;;;;;;;;;;4997646;28;19925;-55
2022/12/03 04:57:57;;;;;;;;;;;;;;;;;;4988597;28;19933;-55
2022/12/03 05:00:23;;;;;;;;;;;;;;;;;;4989298;28;19929;-55
2022/12/03 05:02:49;;;;;;;;;;;;;;;;;;4997751;28;19921;-55
2022/12/03 05:05:15;;;;;;;;;;;;;;;;;;4987110;28;19925;-55
2022/12/03 05:07:41;;;;;;;;;;;;;;;;;;4981225;28;19921;-55
2022/12/03 05:10:07;;;;;;;;;;;;;;;;;;4993137;28;19929;-56
2022/12/03 05:12:33;;;;;;;;;;;;;;;;;;5013571;28;19926;-55
2022/12/03 05:14:59;;;;;;;;;;;;;;;;;;5008231;28;19921;-55
2022/12/03 05:17:25;;;;;;;;;;;;;;;;;;4982205;28;20387;-56
2022/12/03 05:22:35;;;;;;;;;;;;;;;;;;4985809;28;19984;-55
2022/12/03 05:25:01;;;;;;;;;;;;;;;;;;4998124;28;20290;-55
2022/12/03 05:27:27;;;;;;;;;;;;;;;;;;4993762;28;19926;-55
2022/12/03 05:29:53;;;;;;;;;;;;;;;;;;4996769;28;19924;-55
2022/12/03 05:32:19;;;;;;;;;;;;;;;;;;4991121;28;19929;-55
2022/12/03 05:34:45;;;;;;;;;;;;;;;;;;4984140;28;19925;-55
2022/12/03 05:37:10;;;;;;;;;;;;;;;;;;4992999;28;20119;-55
2022/12/03 05:39:36;;;;;;;;;;;;;;;;;;4996986;28;20020;-56
2022/12/03 05:44:47;;;;;;;;;;;;;;;;;;4990675;28;19977;-56
2022/12/03 05:47:13;;;;;;;;;;;;;;;;;;4991741;28;19925;-56
2022/12/03 05:49:39;;;;;;;;;;;;;;;;;;4999035;28;20441;-55
2022/12/03 05:52:05;;;;;;;;;;;;;;;;;;4996155;28;19922;-55
2022/12/03 05:54:30;;;;;;;;;;;;;;;;;;4996217;28;19967;-54
2022/12/03 05:56:56;;;;;;;;;;;;;;;;;;4996223;28;19928;-55
2022/12/03 05:59:22;;;;;;;;;;;;;;;;;;5002536;28;20563;-55
2022/12/03 06:01:48;;;;;;;;;;;;;;;;;;4991528;28;21659;-56
2022/12/03 06:04:14;;;;;;;;;;;;;;;;;;4999196;28;19929;-54
2022/12/03 06:06:40;;;;;;;;;;;;;;;;;;4977113;28;20372;-55
2022/12/03 06:09:06;;;;;;;;;;;;;;;;;;5003047;28;20280;-55
2022/12/03 06:11:33;;;;;;;;;;;;;;;;;;4991510;28;20481;-55
2022/12/03 06:13:59;;;;;;;;;;;;;;;;;;4992782;28;19917;-55
2022/12/03 06:16:25;;;;;;;;;;;;;;;;;;4976165;28;19936;-55
2022/12/03 06:18:51;;;;;;;;;;;;;;;;;;4991547;28;19922;-54
2022/12/03 06:21:17;;;;;;;;;;;;;;;;;;4995960;28;20468;-54
2022/12/03 06:23:43;;;;;;;;;;;;;;;;;;4996638;28;20019;-55
2022/12/03 06:26:09;;;;;;;;;;;;;;;;;;5001894;28;20367;-54
2022/12/03 06:28:35;;;;;;;;;;;;;;;;;;4992976;28;20052;-55
2022/12/03 06:31:01;;;;;;;;;;;;;;;;;;4984660;28;19972;-56
2022/12/03 06:33:27;;;;;;;;;;;;;;;;;;4974440;28;19985;-55
2022/12/03 06:35:52;;;;;;;;;;;;;;;;;;4992689;28;19921;-55
2022/12/03 06:38:18;;;;;;;;;;;;;;;;;;4991121;28;19929;-54
2022/12/03 06:40:44;;;;;;;;;;;;;;;;;;4998548;28;20019;-54
2022/12/03 06:43:10;;;;;;;;;;;;;;;;;;4989781;28;19931;-56
2022/12/03 06:45:36;;;;;;;;;;;;;;;;;;4981078;28;19924;-54
2022/12/03 06:48:02;;;;;;;;;;;;;;;;;;4990719;28;19926;-55
2022/12/03 06:50:28;;;;;;;;;;;;;;;;;;4988747;28;19929;-55
2022/12/03 06:52:54;;;;;;;;;;;;;;;;;;5005143;28;19931;-54
2022/12/03 06:55:19;;;;;;;;;;;;;;;;;;4996924;28;20012;-56
2022/12/03 06:57:45;;;;;;;;;;;;;;;;;;4989975;28;19929;-55
2022/12/03 07:00:11;;;;;;;;;;;;;;;;;;5003464;28;20023;-55
2022/12/03 07:02:37;;;;;;;;;;;;;;;;;;5003370;28;19948;-54
2022/12/03 07:05:03;;;;;;;;;;;;;;;;;;5004405;28;19925;-55
2022/12/03 07:07:29;;;;;;;;;;;;;;;;;;4994062;28;19932;-54
2022/12/03 07:09:55;;;;;;;;;;;;;;;;;;5003234;28;19960;-55
2022/12/03 07:12:21;;;;;;;;;;;;;;;;;;4995202;28;20228;-55
2022/12/03 07:14:46;;;;;;;;;;;;;;;;;;4996623;28;20432;-55
2022/12/03 07:17:12;;;;;;;;;;;;;;;;;;5005667;28;19925;-56
2022/12/03 07:19:38;;;;;;;;;;;;;;;;;;5001173;28;20224;-56
2022/12/03 07:22:04;;;;;;;;;;;;;;;;;;5013607;28;20430;-54
2022/12/03 07:24:30;;;;;;;;;;;;;;;;;;4997198;28;19925;-55
2022/12/03 07:26:56;;;;;;;;;;;;;;;;;;4997777;28;19933;-54
2022/12/03 07:29:22;;;;;;;;;;;;;;;;;;5000767;28;20023;-55
2022/12/03 07:31:48;;;;;;;;;;;;;;;;;;5000709;28;19925;-55
2022/12/03 07:34:13;;;;;;;;;;;;;;;;;;5001002;28;19922;-55
2022/12/03 07:36:39;;;;;;;;;;;;;;;;;;5001788;28;19932;-54
2022/12/03 07:39:05;;;;;;;;;;;;;;;;;;4994485;28;20795;-55
2022/12/03 07:41:31;;;;;;;;;;;;;;;;;;4993034;28;19921;-56
2022/12/03 07:43:57;;;;;;;;;;;;;;;;;;4994007;28;20524;-55
2022/12/03 07:46:23;;;;;;;;;;;;;;;;;;4985542;28;19926;-55
2022/12/03 07:48:49;;;;;;;;;;;;;;;;;;5002109;28;19933;-54
2022/12/03 07:51:15;;;;;;;;;;;;;;;;;;4979148;28;19931;-55
2022/12/03 07:53:40;;;;;;;;;;;;;;;;;;4997942;28;19929;-55
2022/12/03 07:56:06;;;;;;;;;;;;;;;;;;4990116;28;20301;-54
2022/12/03 07:58:32;;;;;;;;;;;;;;;;;;4994913;28;20775;-55
2022/12/03 08:00:58;;;;;;;;;;;;;;;;;;4990393;28;19937;-55
2022/12/03 08:03:24;;;;;;;;;;;;;;;;;;4983284;28;19924;-55
2022/12/03 08:05:50;;;;;;;;;;;;;;;;;;4994853;28;22018;-55
2022/12/03 08:08:16;;;;;;;;;;;;;;;;;;4992678;28;19925;-54
2022/12/03 08:10:41;;;;;;;;;;;;;;;;;;5005590;28;19925;-55
2022/12/03 08:13:07;;;;;;;;;;;;;;;;;;4989126;28;19926;-55
2022/12/03 08:15:33;;;;;;;;;;;;;;;;;;4994962;28;19925;-55
2022/12/03 08:17:59;;;;;;;;;;;;;;;;;;5038222;22;19979;-68
2022/12/03 08:20:25;;;;;;;;;;;;;;;;;;5040238;28;19929;-68
2022/12/03 08:22:51;;;;;;;;;;;;;;;;;;5013746;28;19967;-67
2022/12/03 08:25:17;;;;;;;;;;;;;;;;;;5039691;28;19932;-68
2022/12/03 08:27:43;;;;;;;;;;;;;;;;;;5033026;28;19930;-69
2022/12/03 08:30:08;;;;;;;;;;;;;;;;;;5039761;28;19929;-68
2022/12/03 08:32:34;;;;;;;;;;;;;;;;;;5028510;28;19921;-69
2022/12/03 08:35:00;;;;;;;;;;;;;;;;;;5040894;28;20431;-66
2022/12/03 08:37:26;;;;;;;;;;;;;;;;;;5043561;28;19929;-66
2022/12/03 08:39:52;;;;;;;;;;;;;;;;;;5038121;28;20652;-67
2022/12/03 08:45:03;;;;;;;;;;;;;;;;;;5046466;28;19932;-67
2022/12/03 08:47:29;;;;;;;;;;;;;;;;;;5028651;28;19925;-68
2022/12/03 08:49:54;;;;;;;;;;;;;;;;;;5030135;28;19920;-67
2022/12/03 08:52:20;;;;;;;;;;;;;;;;;;5037531;28;20421;-67
2022/12/03 08:54:46;;;;;;;;;;;;;;;;;;5014873;28;20476;-66
2022/12/03 08:57:12;;;;;;;;;;;;;;;;;;5029454;28;19921;-67
2022/12/03 08:59:38;;;;;;;;;;;;;;;;;;5020898;28;20086;-67
2022/12/03 09:02:04;;;;;;;;;;;;;;;;;;5035779;28;19932;-67
2022/12/03 09:04:30;;;;;;;;;;;;;;;;;;5033808;28;20432;-67
2022/12/03 09:06:56;;;;;;;;;;;;;;;;;;5038921;28;20272;-67
2022/12/03 09:09:21;;;;;;;;;;;;;;;;;;5030285;28;20382;-67
2022/12/03 09:11:47;;;;;;;;;;;;;;;;;;5039432;28;19924;-67
2022/12/03 09:14:13;;;;;;;;;;;;;;;;;;5043350;28;20394;-67
2022/12/03 09:16:39;;;;;;;;;;;;;;;;;;5028708;28;19924;-67
2022/12/03 09:19:05;;;;;;;;;;;;;;;;;;5031563;28;19921;-67
2022/12/03 09:21:31;;;;;;;;;;;;;;;;;;5044815;28;19936;-67
2022/12/03 09:23:57;;;;;;;;;;;;;;;;;;5032948;28;19927;-67
2022/12/03 09:26:23;;;;;;;;;;;;;;;;;;5044023;28;19970;-66
2022/12/03 09:28:49;;;;;;;;;;;;;;;;;;5041629;28;20378;-67
2022/12/03 09:31:14;;;;;;;;;;;;;;;;;;5036456;28;20350;-67
2022/12/03 09:33:40;;;;;;;;;;;;;;;;;;5023519;28;19932;-67
2022/12/03 09:36:06;;;;;;;;;;;;;;;;;;5033055;28;19924;-67
2022/12/03 09:38:32;;;;;;;;;;;;;;;;;;5043395;28;19923;-66
2022/12/03 09:40:58;;;;;;;;;;;;;;;;;;5035775;28;19935;-66
2022/12/03 09:43:24;;;;;;;;;;;;;;;;;;5040000;28;19921;-66
2022/12/03 09:45:49;;;;;;;;;;;;;;;;;;5041426;28;19924;-66
2022/12/03 09:48:15;;;;;;;;;;;;;;;;;;5039794;28;20429;-66
2022/12/03 09:50:41;;;;;;;;;;;;;;;;;;5031343;28;19993;-66
2022/12/03 09:53:07;;;;;;;;;;;;;;;;;;5033215;28;19924;-67
2022/12/03 09:55:33;;;;;;;;;;;;;;;;;;5029355;28;20100;-66
2022/12/03 09:57:59;;;;;;;;;;;;;;;;;;5042868;28;19925;-66
2022/12/03 10:00:25;;;;;;;;;;;;;;;;;;5037256;28;19928;-67
2022/12/03 10:02:51;;;;;;;;;;;;;;;;;;5023623;28;19931;-66
2022/12/03 10:05:17;;;;;;;;;;;;;;;;;;5030071;28;20508;-66
2022/12/03 10:07:43;;;;;;;;;;;;;;;;;;5036774;28;19930;-66
2022/12/03 10:10:09;;;;;;;;;;;;;;;;;;5024861;28;20476;-67
2022/12/03 10:12:34;;;;;;;;;;;;;;;;;;5038235;28;20275;-66
2022/12/03 10:15:00;;;;;;;;;;;;;;;;;;5035245;28;19956;-67
2022/12/03 10:17:26;;;;;;;;;;;;;;;;;;5029878;28;20435;-66
2022/12/03 10:19:52;;;;;;;;;;;;;;;;;;5042580;28;19971;-67
2022/12/03 10:22:18;;;;;;;;;;;;;;;;;;5042717;28;19925;-67
2022/12/03 10:24:44;;;;;;;;;;;;;;;;;;5046619;28;19927;-66
2022/12/03 10:27:09;;;;;;;;;;;;;;;;;;5047483;28;19970;-66
2022/12/03 10:29:35;;;;;;;;;;;;;;;;;;5047874;28;19995;-66
2022/12/03 10:32:01;;;;;;;;;;;;;;;;;;5050523;28;19921;-66
2022/12/03 10:34:29;;;;;;;;;;;;;;;;;;5050117;28;20570;-67
2022/12/03 10:36:55;;;;;;;;;;;;;;;;;;5052589;28;19932;-66
2022/12/03 10:39:21;;;;;;;;;;;;;;;;;;5040718;28;19924;-67
2022/12/03 10:41:47;;;;;;;;;;;;;;;;;;5050987;28;20011;-66
2022/12/03 10:44:13;;;;;;;;;;;;;;;;;;5050302;28;19980;-67
2022/12/03 10:46:39;;;;;;;;;;;;;;;;;;5048648;28;20437;-66
2022/12/03 10:49:05;;;;;;;;;;;;;;;;;;5047665;28;19924;-66
2022/12/03 10:51:31;;;;;;;;;;;;;;;;;;5042974;28;19985;-67
2022/12/03 10:53:57;;;;;;;;;;;;;;;;;;5044970;28;19924;-67
2022/12/03 10:56:23;;;;;;;;;;;;;;;;;;5047980;28;19924;-66
2022/12/03 10:58:49;;;;;;;;;;;;;;;;;;5048780;28;19928;-66
2022/12/03 11:01:15;;;;;;;;;;;;;;;;;;5045449;28;19927;-67
2022/12/03 11:03:41;;;;;;;;;;;;;;;;;;5048397;28;19955;-66
2022/12/03 11:06:07;;;;;;;;;;;;;;;;;;5049858;28;19920;-66
2022/12/03 11:08:33;;;;;;;;;;;;;;;;;;5047327;28;19924;-66
2022/12/03 11:10:59;;;;;;;;;;;;;;;;;;5045864;28;19916;-66
2022/12/03 11:13:24;;;;;;;;;;;;;;;;;;5042058;28;19917;-66
2022/12/03 11:15:51;;;;;;;;;;;;;;;;;;5053981;28;19925;-66
2022/12/03 11:18:17;;;;;;;;;;;;;;;;;;5046637;28;20095;-66
2022/12/03 11:20:43;;;;;;;;;;;;;;;;;;5051958;28;19927;-67
2022/12/03 11:23:09;;;;;;;;;;;;;;;;;;5039938;28;19925;-67
2022/12/03 11:25:36;;;;;;;;;;;;;;;;;;5045419;28;20405;-66
2022/12/03 11:28:02;;;;;;;;;;;;;;;;;;5045470;28;20666;-66
2022/12/03 11:30:28;;;;;;;;;;;;;;;;;;5045605;28;19925;-66
2022/12/03 11:32:53;;;;;;;;;;;;;;;;;;5044040;28;20405;-66
2022/12/03 11:35:19;;;;;;;;;;;;;;;;;;5043131;28;20305;-66
2022/12/03 11:37:45;;;;;;;;;;;;;;;;;;5049716;28;20329;-67
2022/12/03 11:40:11;;;;;;;;;;;;;;;;;;5048954;28;19925;-66
2022/12/03 11:42:37;;;;;;;;;;;;;;;;;;5043789;28;19979;-67
2022/12/03 11:45:03;;;;;;;;;;;;;;;;;;5047102;28;19924;-66
2022/12/03 11:47:29;;;;;;;;;;;;;;;;;;5044903;28;19942;-66
2022/12/03 11:49:55;;;;;;;;;;;;;;;;;;5050121;28;20452;-66
2022/12/03 11:52:20;;;;;;;;;;;;;;;;;;5038088;28;20701;-66
2022/12/03 11:54:46;;;;;;;;;;;;;;;;;;5045036;28;19928;-66
2022/12/03 11:57:12;;;;;;;;;;;;;;;;;;5029121;28;20109;-67
2022/12/03 11:59:38;;;;;;;;;;;;;;;;;;5053252;28;19979;-66
2022/12/03 12:02:04;;;;;;;;;;;;;;;;;;5044646;28;20038;-67
2022/12/03 12:04:30;;;;;;;;;;;;;;;;;;5020955;28;19921;-67
2022/12/03 12:06:56;;;;;;;;;;;;;;;;;;5047495;28;21075;-66
2022/12/03 12:09:21;;;;;;;;;;;;;;;;;;5036555;28;19971;-67
2022/12/03 12:11:47;;;;;;;;;;;;;;;;;;5043865;28;19946;-67
2022/12/03 12:14:13;;;;;;;;;;;;;;;;;;5046878;28;19924;-66
2022/12/03 12:16:40;;;;;;;;;;;;;;;;;;5046139;28;20041;-67
2022/12/03 12:19:05;;;;;;;;;;;;;;;;;;5044878;28;19929;-66
2022/12/03 12:21:31;;;;;;;;;;;;;;;;;;5046318;28;19935;-67
2022/12/03 12:23:57;;;;;;;;;;;;;;;;;;5048735;28;20653;-66
2022/12/03 12:26:23;;;;;;;;;;;;;;;;;;5049103;28;19924;-66
2022/12/03 12:28:49;;;;;;;;;;;;;;;;;;5050718;28;20088;-66
2022/12/03 12:31:15;;;;;;;;;;;;;;;;;;5044842;28;19925;-67
2022/12/03 12:33:41;;;;;;;;;;;;;;;;;;5040472;28;20728;-66
2022/12/03 12:36:06;;;;;;;;;;;;;;;;;;5043170;28;20005;-66
2022/12/03 12:38:32;;;;;;;;;;;;;;;;;;5027564;28;19973;-66
2022/12/03 12:40:58;;;;;;;;;;;;;;;;;;5036985;28;19935;-66
2022/12/03 12:43:24;;;;;;;;;;;;;;;;;;5036355;28;20033;-67
2022/12/03 12:45:50;;;;;;;;;;;;;;;;;;5034022;28;19924;-66
2022/12/03 12:48:16;;;;;;;;;;;;;;;;;;5046859;28;20241;-65
2022/12/03 12:50:42;;;;;;;;;;;;;;;;;;5027904;28;19928;-67
2022/12/03 12:53:08;;;;;;;;;;;;;;;;;;5040822;28;19920;-68
2022/12/03 12:55:34;;;;;;;;;;;;;;;;;;5040183;28;20633;-68
2022/12/03 12:58:00;;;;;;;;;;;;;;;;;;5018500;28;19925;-66
2022/12/03 13:00:26;;;;;;;;;;;;;;;;;;5033048;28;19925;-66
2022/12/03 13:02:52;;;;;;;;;;;;;;;;;;5044694;28;20370;-68
2022/12/03 13:05:17;;;;;;;;;;;;;;;;;;5016308;28;19975;-68
2022/12/03 13:07:43;;;;;;;;;;;;;;;;;;5040332;28;19925;-68
2022/12/03 13:10:09;;;;;;;;;;;;;;;;;;5034093;28;19970;-68
2022/12/03 13:12:35;;;;;;;;;;;;;;;;;;5046920;28;19932;-68
2022/12/03 13:15:01;;;;;;;;;;;;;;;;;;5044014;28;19931;-68
2022/12/03 13:17:27;;;;;;;;;;;;;;;;;;5035703;28;20125;-68
2022/12/03 13:19:54;;;;;;;;;;;;;;;;;;5037497;28;19944;-68
2022/12/03 13:22:20;;;;;;;;;;;;;;;;;;5047540;28;19920;-68
2022/12/03 13:24:46;;;;;;;;;;;;;;;;;;5046042;28;19939;-68
2022/12/03 13:27:12;;;;;;;;;;;;;;;;;;5044755;28;19931;-68
2022/12/03 13:29:38;;;;;;;;;;;;;;;;;;5044069;28;19947;-68
2022/12/03 13:32:04;;;;;;;;;;;;;;;;;;5044302;28;19959;-68
2022/12/03 13:34:30;;;;;;;;;;;;;;;;;;5036379;28;20397;-68
2022/12/03 13:36:55;;;;;;;;;;;;;;;;;;5039796;28;19951;-66
2022/12/03 13:39:21;;;;;;;;;;;;;;;;;;5040416;28;19933;-66
2022/12/03 13:44:32;;;;;;;;;;;;;;;;;;5033447;28;20567;-66
2022/12/03 13:46:58;;;;;;;;;;;;;;;;;;5045590;28;19957;-66
2022/12/03 13:49:24;;;;;;;;;;;;;;;;;;5033578;28;19917;-66
2022/12/03 13:51:50;;;;;;;;;;;;;;;;;;5025939;28;20396;-66
2022/12/03 13:54:16;;;;;;;;;;;;;;;;;;5041030;28;20027;-66
2022/12/03 13:56:41;;;;;;;;;;;;;;;;;;5033437;28;19966;-66
2022/12/03 13:59:08;;;;;;;;;;;;;;;;;;5032150;28;19916;-66
2022/12/03 14:01:34;;;;;;;;;;;;;;;;;;5015389;28;19930;-66
2022/12/03 14:04:00;;;;;;;;;;;;;;;;;;5037853;28;19924;-66
2022/12/03 14:06:26;;;;;;;;;;;;;;;;;;5028615;28;19928;-66
2022/12/03 14:08:52;;;;;;;;;;;;;;;;;;5031149;28;19931;-66
2022/12/03 14:14:02;;;;;;;;;;;;;;;;;;5032931;28;19966;-66
2022/12/03 14:16:28;;;;;;;;;;;;;;;;;;5039186;28;20487;-66
2022/12/03 14:18:54;;;;;;;;;;;;;;;;;;5042371;28;19924;-66
2022/12/03 14:21:20;;;;;;;;;;;;;;;;;;5033716;28;19935;-66
2022/12/03 14:23:46;;;;;;;;;;;;;;;;;;5041206;28;19931;-66
2022/12/03 14:26:12;;;;;;;;;;;;;;;;;;5040030;28;20126;-66
2022/12/03 14:28:38;;;;;;;;;;;;;;;;;;5030319;28;19928;-66
2022/12/03 14:31:03;;;;;;;;;;;;;;;;;;5030008;28;19959;-66
2022/12/03 14:33:29;;;;;;;;;;;;;;;;;;5024886;28;19925;-66
2022/12/03 14:35:56;;;;;;;;;;;;;;;;;;5021720;28;19931;-66
2022/12/03 14:38:22;;;;;;;;;;;;;;;;;;5025493;28;21368;-66
2022/12/03 14:40:48;;;;;;;;;;;;;;;;;;5035185;28;19928;-66
2022/12/03 14:43:13;;;;;;;;;;;;;;;;;;5029977;28;19966;-66
2022/12/03 14:45:39;;;;;;;;;;;;;;;;;;5030519;28;19928;-66
2022/12/03 14:48:05;;;;;;;;;;;;;;;;;;5043047;28;19993;-66
2022/12/03 14:50:31;;;;;;;;;;;;;;;;;;5041832;28;19929;-66
2022/12/03 14:52:57;;;;;;;;;;;;;;;;;;5036915;28;19963;-66
2022/12/03 14:55:23;;;;;;;;;;;;;;;;;;5040516;28;19931;-67
2022/12/03 14:57:49;;;;;;;;;;;;;;;;;;5021094;28;20441;-66
2022/12/03 15:00:15;;;;;;;;;;;;;;;;;;5035808;28;20130;-66
2022/12/03 15:02:41;;;;;;;;;;;;;;;;;;5029559;28;20393;-66
2022/12/03 15:05:07;;;;;;;;;;;;;;;;;;5034062;28;19924;-66
2022/12/03 15:07:33;;;;;;;;;;;;;;;;;;5038679;28;19970;-66
2022/12/03 15:09:59;;;;;;;;;;;;;;;;;;5042287;28;19920;-66
2022/12/03 15:12:25;;;;;;;;;;;;;;;;;;5035471;28;20011;-66
2022/12/03 15:14:51;;;;;;;;;;;;;;;;;;5033398;28;19928;-66
2022/12/03 15:17:17;;;;;;;;;;;;;;;;;;5041564;28;20409;-66
2022/12/03 15:19:42;;;;;;;;;;;;;;;;;;5030965;28;20184;-66
2022/12/03 15:22:08;;;;;;;;;;;;;;;;;;5036693;28;20347;-66
2022/12/03 15:24:34;;;;;;;;;;;;;;;;;;5044414;28;20324;-66
2022/12/03 15:27:00;;;;;;;;;;;;;;;;;;5038804;28;19921;-66
2022/12/03 15:29:26;;;;;;;;;;;;;;;;;;5042416;28;19983;-65
2022/12/03 15:31:52;;;;;;;;;;;;;;;;;;5044340;28;19921;-66
2022/12/03 15:34:18;;;;;;;;;;;;;;;;;;5036701;28;20008;-65
2022/12/03 15:36:43;;;;;;;;;;;;;;;;;;5050403;28;19994;-66
2022/12/03 15:39:09;;;;;;;;;;;;;;;;;;5043244;28;19939;-66
2022/12/03 15:41:35;;;;;;;;;;;;;;;;;;5029024;28;19928;-66
2022/12/03 15:44:01;;;;;;;;;;;;;;;;;;5040200;28;19931;-66
2022/12/03 15:46:27;;;;;;;;;;;;;;;;;;5041280;28;19921;-65
2022/12/03 15:48:53;;;;;;;;;;;;;;;;;;5043942;28;20375;-66
2022/12/03 15:51:19;;;;;;;;;;;;;;;;;;5041595;28;19921;-66
2022/12/03 15:53:45;;;;;;;;;;;;;;;;;;5045260;28;19935;-66
2022/12/03 15:56:11;;;;;;;;;;;;;;;;;;5025424;28;19925;-66
2022/12/03 15:58:36;;;;;;;;;;;;;;;;;;5044117;28;20031;-66
2022/12/03 16:01:02;;;;;;;;;;;;;;;;;;5022702;28;20448;-66
2022/12/03 16:03:28;;;;;;;;;;;;;;;;;;5033741;28;19947;-66
2022/12/03 16:05:54;;;;;;;;;;;;;;;;;;5036200;28;20019;-66
2022/12/03 16:08:20;;;;;;;;;;;;;;;;;;5038612;28;19917;-66
2022/12/03 16:10:46;;;;;;;;;;;;;;;;;;5040126;28;20927;-66
2022/12/03 16:13:12;;;;;;;;;;;;;;;;;;5035633;28;19935;-66
2022/12/03 16:15:37;;;;;;;;;;;;;;;;;;5035105;28;19920;-66
2022/12/03 16:18:03;;;;;;;;;;;;;;;;;;5037432;28;19929;-66
2022/12/03 16:20:29;;;;;;;;;;;;;;;;;;5044153;28;19928;-65
2022/12/03 16:22:55;;;;;;;;;;;;;;;;;;5020942;28;20283;-66
2022/12/03 16:25:21;;;;;;;;;;;;;;;;;;5024042;28;19929;-66
2022/12/03 16:27:47;;;;;;;;;;;;;;;;;;5025413;28;19921;-65
2022/12/03 16:30:13;;;;;;;;;;;;;;;;;;5042807;28;20624;-65
2022/12/03 16:32:38;;;;;;;;;;;;;;;;;;5028671;28;19943;-66
2022/12/03 16:35:04;;;;;;;;;;;;;;;;;;5040138;28;19983;-66
2022/12/03 16:37:30;;;;;;;;;;;;;;;;;;5030113;28;19928;-66
2022/12/03 16:39:56;;;;;;;;;;;;;;;;;;5035691;28;19927;-65
2022/12/03 16:42:22;;;;;;;;;;;;;;;;;;5027318;28;19925;-65
2022/12/03 16:47:32;;;;;;;;;;;;;;;;;;5035797;28;19924;-65
2022/12/03 16:49:58;;;;;;;;;;;;;;;;;;5017345;28;19932;-66
2022/12/03 16:52:24;;;;;;;;;;;;;;;;;;5032882;28;20378;-65
2022/12/03 16:54:50;;;;;;;;;;;;;;;;;;5050182;28;19920;-66
2022/12/03 16:57:16;;;;;;;;;;;;;;;;;;5048602;28;20069;-65
2022/12/03 16:59:42;;;;;;;;;;;;;;;;;;5047102;28;19928;-66
2022/12/03 17:02:07;;;;;;;;;;;;;;;;;;5041404;28;19916;-65
2022/12/03 17:04:33;;;;;;;;;;;;;;;;;;5044509;28;20440;-65
2022/12/03 17:06:59;;;;;;;;;;;;;;;;;;5030736;28;19948;-65
2022/12/03 17:09:25;;;;;;;;;;;;;;;;;;5038965;28;19932;-65
2022/12/03 17:11:51;;;;;;;;;;;;;;;;;;5043730;28;20027;-65
2022/12/03 17:14:17;;;;;;;;;;;;;;;;;;5036547;28;19934;-65